createdAt,value
2022-09-01T00:00:32.792Z,2.08
2022-09-01T00:03:35.420Z,1.70
2022-09-01T00:06:38.726Z,1.67
2022-09-01T00:12:43.466Z,1.73
2022-09-01T00:15:45.357Z,2.08
2022-09-01T00:18:50.359Z,1.83
2022-09-01T00:21:52.401Z,2.33
2022-09-01T00:24:54.185Z,1.95
2022-09-01T00:28:00.456Z,2.03
2022-09-01T00:31:03.225Z,1.67
2022-09-01T00:34:05.762Z,2.30
2022-09-01T00:37:08.852Z,2.00
2022-09-01T00:40:13.979Z,1.95
2022-09-01T00:43:24.424Z,2.30
2022-09-01T00:46:30.076Z,2.40
2022-09-01T00:49:44.799Z,2.40
2022-09-01T00:52:51.153Z,2.40
2022-09-01T00:55:53.167Z,2.45
2022-09-01T00:58:55.189Z,2.03
2022-09-01T01:01:58.106Z,2.08
2022-09-01T01:05:00.630Z,2.35
2022-09-01T01:08:03.474Z,2.20
2022-09-01T01:11:17.808Z,3.10
2022-09-01T01:14:20.159Z,2.58
2022-09-01T01:17:24.037Z,2.45
2022-09-01T01:20:46.473Z,2.58
2022-09-01T01:24:01.223Z,2.83
2022-09-01T01:27:03.415Z,2.35
2022-09-01T01:30:11.137Z,2.58
2022-09-01T01:33:12.958Z,2.72
2022-09-01T01:36:31.152Z,2.60
2022-09-01T01:39:33.446Z,2.60
2022-09-01T01:42:35.458Z,2.38
2022-09-01T01:45:37.341Z,2.47
2022-09-01T01:48:42.112Z,2.60
2022-09-01T01:51:44.041Z,2.40
2022-09-01T01:54:46.507Z,2.55
2022-09-01T01:57:51.093Z,2.78
2022-09-01T02:00:54.569Z,2.40
2022-09-01T02:07:02.227Z,2.58
2022-09-01T02:10:04.465Z,2.70
2022-09-01T02:13:12.138Z,2.50
2022-09-01T02:16:14.246Z,2.92
2022-09-01T02:19:21.136Z,3.03
2022-09-01T02:22:23.142Z,3.05
2022-09-01T02:25:26.335Z,2.70
2022-09-01T02:28:31.999Z,2.80
2022-09-01T02:31:42.067Z,3.08
2022-09-01T02:34:43.902Z,3.00
2022-09-01T02:37:46.905Z,3.10
2022-09-01T02:40:48.815Z,3.10
2022-09-01T02:43:51.361Z,3.15
2022-09-01T02:46:53.264Z,3.42
2022-09-01T02:49:55.137Z,3.40
2022-09-01T02:52:59.782Z,3.13
2022-09-01T02:56:12.017Z,3.33
2022-09-01T02:59:15.707Z,3.40
2022-09-01T03:02:17.440Z,3.30
2022-09-01T03:05:25.322Z,3.17
2022-09-01T03:08:27.715Z,3.38
2022-09-01T03:11:31.707Z,3.40
2022-09-01T03:14:33.478Z,3.75
2022-09-01T03:17:35.303Z,3.47
2022-09-01T03:20:39.692Z,3.83
2022-09-01T03:23:42.209Z,3.25
2022-09-01T03:26:45.546Z,3.20
2022-09-01T03:29:52.188Z,3.63
2022-09-01T03:32:54.494Z,3.35
2022-09-01T03:35:57.113Z,4.07
2022-09-01T03:38:59.998Z,3.83
2022-09-01T03:42:01.690Z,3.55
2022-09-01T03:45:09.350Z,4.00
2022-09-01T03:48:11.167Z,3.60
2022-09-01T03:51:14.411Z,3.88
2022-09-01T03:54:16.098Z,3.65
2022-09-01T03:57:18.026Z,4.28
2022-09-01T04:00:23.323Z,4.15
2022-09-01T04:03:29.081Z,3.67
2022-09-01T04:06:33.136Z,3.97
2022-09-01T04:09:35.346Z,3.65
2022-09-01T04:12:38.727Z,4.20
2022-09-01T04:18:43.059Z,4.65
2022-09-01T04:21:44.874Z,4.87
2022-09-01T04:24:46.873Z,4.35
2022-09-01T04:27:50.563Z,4.82
2022-09-01T04:30:56.017Z,5.22
2022-09-01T04:33:58.405Z,5.45
2022-09-01T04:37:00.123Z,5.15
2022-09-01T04:40:18.019Z,5.45
2022-09-01T04:43:20.349Z,5.30
2022-09-01T04:46:24.245Z,6.00
2022-09-01T04:49:28.216Z,5.85
2022-09-01T04:52:31.988Z,5.43
2022-09-01T04:55:34.219Z,5.30
2022-09-01T04:58:37.013Z,5.32
2022-09-01T05:01:43.472Z,5.47
2022-09-01T05:04:46.356Z,6.22
2022-09-01T05:07:52.752Z,6.47
2022-09-01T05:11:02.865Z,5.75
2022-09-01T05:14:06.998Z,5.47
2022-09-01T05:17:10.798Z,4.95
2022-09-01T05:20:13.981Z,4.60
2022-09-01T05:23:19.562Z,4.85
2022-09-01T05:26:28.017Z,4.30
2022-09-01T05:29:29.906Z,4.95
2022-09-01T05:32:33.559Z,5.32
2022-09-01T05:35:35.765Z,5.45
2022-09-01T05:38:42.049Z,5.13
2022-09-01T05:41:45.949Z,6.18
2022-09-01T05:44:48.886Z,5.78
2022-09-01T05:47:54.970Z,5.90
2022-09-01T05:50:58.016Z,6.07
2022-09-01T05:54:00.149Z,5.93
2022-09-01T05:57:23.255Z,6.03
2022-09-01T06:00:25.236Z,5.97
2022-09-01T06:03:27.862Z,5.88
2022-09-01T06:07:05.424Z,6.40
2022-09-01T06:10:10.020Z,5.90
2022-09-01T06:13:15.969Z,5.97
2022-09-01T06:16:19.835Z,6.13
2022-09-01T06:19:21.596Z,7.18
2022-09-01T06:22:24.909Z,6.75
2022-09-01T06:25:30.526Z,6.88
2022-09-01T06:28:32.244Z,6.82
2022-09-01T06:31:39.227Z,6.95
2022-09-01T06:34:44.773Z,7.88
2022-09-01T06:37:48.599Z,6.72
2022-09-01T06:40:51.162Z,7.20
2022-09-01T06:43:57.752Z,7.47
2022-09-01T06:47:02.367Z,7.00
2022-09-01T06:50:08.580Z,6.80
2022-09-01T06:56:42.823Z,6.88
2022-09-01T06:59:53.970Z,7.00
2022-09-01T07:02:57.775Z,6.60
2022-09-01T07:06:02.207Z,6.10
2022-09-01T07:09:21.645Z,6.00
2022-09-01T07:12:27.556Z,5.93
2022-09-01T07:19:00.094Z,5.50
2022-09-01T07:22:09.705Z,5.53
2022-09-01T07:25:34.335Z,5.43
2022-09-01T07:28:47.797Z,5.72
2022-09-01T07:31:52.167Z,6.25
2022-09-01T07:35:14.183Z,5.80
2022-09-01T07:49:02.605Z,4.80
2022-09-01T07:51:53.047Z,5.10
2022-09-01T07:54:55.774Z,4.55
2022-09-01T07:57:59.266Z,4.65
2022-09-01T08:01:02.845Z,3.67
2022-09-01T08:04:04.589Z,4.25
2022-09-01T08:07:06.465Z,4.40
2022-09-01T08:10:09.126Z,3.75
2022-09-01T08:13:15.299Z,3.47
2022-09-01T08:16:17.788Z,3.58
2022-09-01T08:19:20.102Z,4.05
2022-09-01T08:22:24.538Z,3.30
2022-09-01T08:25:26.320Z,3.30
2022-09-01T08:28:28.591Z,3.10
2022-09-01T08:31:31.240Z,2.35
2022-09-01T08:34:34.117Z,2.47
2022-09-01T08:37:37.742Z,2.30
2022-09-01T08:40:42.118Z,2.30
2022-09-01T08:44:00.680Z,2.40
2022-09-01T08:47:08.399Z,2.35
2022-09-01T08:50:20.712Z,2.10
2022-09-01T08:53:28.986Z,2.15
2022-09-01T08:56:32.330Z,1.90
2022-09-01T09:03:00.829Z,2.17
2022-09-01T09:06:29.723Z,1.92
2022-09-01T09:09:54.135Z,2.00
2022-09-01T09:13:02.288Z,1.77
2022-09-01T09:16:12.076Z,2.10
2022-09-01T09:19:22.205Z,2.25
2022-09-01T09:22:23.955Z,1.95
2022-09-01T09:25:25.705Z,2.17
2022-09-01T09:28:27.629Z,2.45
2022-09-01T09:31:43.695Z,2.10
2022-09-01T09:34:48.725Z,2.00
2022-09-01T09:37:51.080Z,2.28
2022-09-01T09:41:26.976Z,2.08
2022-09-01T09:44:32.971Z,1.70
2022-09-01T09:47:44.921Z,1.80
2022-09-01T09:50:47.015Z,1.67
2022-09-01T09:53:50.640Z,2.00
2022-09-01T09:57:14.404Z,1.75
2022-09-01T10:03:37.649Z,1.75
2022-09-01T10:06:45.250Z,1.60
2022-09-01T10:09:48.729Z,1.65
2022-09-01T10:12:57.587Z,1.60
2022-09-01T10:16:05.584Z,1.42
2022-09-01T10:19:16.788Z,1.95
2022-09-01T10:22:20.938Z,1.75
2022-09-01T10:25:29.136Z,1.52
2022-09-01T10:28:33.537Z,1.58
2022-09-01T10:31:36.985Z,1.50
2022-09-01T10:35:04.691Z,1.52
2022-09-01T10:38:12.087Z,1.40
2022-09-01T10:43:47.096Z,1.20
2022-09-01T10:49:02.893Z,1.40
2022-09-01T10:55:24.712Z,1.40
2022-09-01T11:02:36.028Z,1.50
2022-09-01T11:07:11.592Z,1.20
2022-09-01T11:10:38.336Z,1.20
2022-09-01T11:24:33.016Z,1.67
2022-09-01T11:28:07.212Z,1.67
2022-09-01T11:31:12.500Z,1.40
2022-09-01T11:38:15.404Z,1.15
2022-09-01T11:41:46.633Z,1.65
2022-09-01T11:45:12.378Z,1.63
2022-09-01T11:51:27.625Z,1.90
2022-09-01T11:54:38.193Z,1.50
2022-09-01T11:57:41.113Z,1.50
2022-09-01T12:00:43.230Z,1.20
2022-09-01T12:03:47.391Z,1.60
2022-09-01T12:06:56.153Z,1.15
2022-09-01T12:09:58.056Z,1.73
2022-09-01T12:13:05.907Z,1.42
2022-09-01T12:16:18.740Z,1.52
2022-09-01T12:19:27.102Z,1.63
2022-09-01T12:22:29.401Z,1.38
2022-09-01T12:25:33.604Z,1.65
2022-09-01T12:28:35.792Z,1.38
2022-09-01T12:31:39.972Z,1.10
2022-09-01T12:34:47.862Z,1.35
2022-09-01T12:37:51.821Z,1.60
2022-09-01T12:40:55.384Z,1.52
2022-09-01T12:43:57.355Z,1.60
2022-09-01T12:47:05.603Z,1.30
2022-09-01T12:50:16.479Z,1.38
2022-09-01T12:53:22.505Z,1.33
2022-09-01T12:56:31.241Z,1.40
2022-09-01T12:59:37.307Z,1.77
2022-09-01T13:02:46.192Z,1.50
2022-09-01T13:05:53.014Z,1.33
2022-09-01T13:08:56.639Z,2.10
2022-09-01T13:12:11.120Z,1.63
2022-09-01T13:18:19.311Z,1.17
2022-09-01T13:21:21.760Z,1.30
2022-09-01T13:24:28.550Z,1.60
2022-09-01T13:27:35.410Z,1.48
2022-09-01T13:30:38.374Z,1.40
2022-09-01T13:37:02.558Z,1.77
2022-09-01T13:40:08.530Z,1.58
2022-09-01T13:43:12.017Z,1.67
2022-09-01T13:46:13.919Z,1.60
2022-09-01T13:52:46.510Z,1.50
2022-09-01T13:58:59.300Z,1.45
2022-09-01T14:02:04.277Z,1.60
2022-09-01T14:05:07.097Z,1.40
2022-09-01T14:08:10.610Z,1.70
2022-09-01T14:11:17.791Z,1.50
2022-09-01T14:14:19.871Z,2.00
2022-09-01T14:17:22.440Z,1.70
2022-09-01T14:20:36.861Z,1.70
2022-09-01T14:23:38.957Z,1.83
2022-09-01T14:26:41.702Z,1.67
2022-09-01T14:32:56.993Z,1.77
2022-09-01T14:39:11.152Z,2.00
2022-09-01T14:42:12.999Z,1.95
2022-09-01T14:45:18.779Z,1.50
2022-09-01T14:48:21.122Z,1.67
2022-09-01T14:52:10.144Z,1.83
2022-09-01T14:55:07.518Z,1.75
2022-09-01T14:58:45.201Z,1.77
2022-09-01T15:02:16.170Z,1.90
2022-09-01T15:05:18.285Z,1.80
2022-09-01T15:08:21.969Z,2.00
2022-09-01T15:11:23.940Z,1.90
2022-09-01T15:14:25.890Z,2.15
2022-09-01T15:17:28.758Z,1.95
2022-09-01T15:20:46.917Z,1.60
2022-09-01T15:23:49.778Z,2.00
2022-09-01T15:26:52.524Z,2.17
2022-09-01T15:29:55.901Z,1.75
2022-09-01T15:35:59.633Z,1.98
2022-09-01T15:39:01.805Z,1.73
2022-09-01T15:42:05.138Z,1.70
2022-09-01T15:45:17.791Z,1.73
2022-09-01T15:48:19.531Z,1.95
2022-09-01T15:51:24.384Z,1.90
2022-09-01T15:54:30.535Z,1.70
2022-09-01T15:57:32.688Z,1.80
2022-09-01T16:00:35.387Z,2.10
2022-09-01T16:03:37.108Z,1.80
2022-09-01T16:06:39.665Z,1.90
2022-09-01T16:09:41.473Z,1.80
2022-09-01T16:12:48.083Z,2.00
2022-09-01T16:16:22.159Z,2.13
2022-09-01T16:19:52.407Z,1.88
2022-09-01T16:23:23.186Z,1.90
2022-09-01T16:26:24.917Z,1.95
2022-09-01T16:29:40.043Z,1.90
2022-09-01T16:32:47.292Z,1.70
2022-09-01T16:35:55.891Z,1.95
2022-09-01T16:39:06.438Z,1.83
2022-09-01T16:42:49.162Z,2.10
2022-09-01T16:45:57.842Z,2.35
2022-09-01T16:49:08.989Z,2.10
2022-09-01T16:52:30.911Z,2.30
2022-09-01T16:55:52.060Z,1.90
2022-09-01T16:59:29.600Z,2.15
2022-09-01T17:02:49.551Z,2.13
2022-09-01T17:05:56.900Z,2.08
2022-09-01T17:09:09.418Z,2.22
2022-09-01T17:12:27.775Z,1.70
2022-09-01T17:15:39.516Z,2.10
2022-09-01T17:18:48.255Z,2.03
2022-09-01T17:21:57.072Z,2.00
2022-09-01T17:28:16.717Z,2.20
2022-09-01T17:31:58.031Z,1.90
2022-09-01T17:35:07.731Z,2.17
2022-09-01T17:38:30.250Z,2.25
2022-09-01T17:41:58.103Z,1.80
2022-09-01T17:45:22.747Z,1.98
2022-09-01T17:48:43.849Z,2.05
2022-09-01T17:51:52.362Z,2.13
2022-09-01T17:55:03.373Z,2.20
2022-09-01T17:58:24.067Z,1.90
2022-09-01T18:01:34.390Z,1.95
2022-09-01T18:04:52.529Z,2.30
2022-09-01T18:08:15.049Z,2.28
2022-09-01T18:11:19.186Z,2.40
2022-09-01T18:14:22.042Z,2.30
2022-09-01T18:17:33.798Z,2.20
2022-09-01T18:20:44.721Z,2.35
2022-09-01T18:23:51.328Z,2.58
2022-09-01T18:26:53.832Z,2.30
2022-09-01T18:29:56.922Z,2.37
2022-09-01T18:33:13.954Z,2.47
2022-09-01T18:36:39.878Z,2.42
2022-09-01T18:40:07.529Z,2.50
2022-09-01T18:43:41.245Z,2.22
2022-09-01T18:47:03.573Z,2.90
2022-09-01T18:50:31.399Z,3.17
2022-09-01T18:54:09.479Z,2.85
2022-09-01T18:57:18.413Z,3.10
2022-09-01T19:00:27.992Z,3.17
2022-09-01T19:04:10.245Z,3.30
2022-09-01T19:07:39.958Z,3.17
2022-09-01T19:10:53.671Z,3.40
2022-09-01T19:14:37.383Z,2.97
2022-09-01T19:37:51.380Z,2.95
2022-09-01T19:41:01.435Z,3.30
2022-09-01T19:44:08.532Z,3.05
2022-09-01T19:47:18.441Z,5.85
2022-09-01T19:50:21.196Z,3.03
2022-09-01T19:53:45.742Z,2.47
2022-09-01T19:56:55.841Z,2.60
2022-09-01T20:00:08.485Z,2.95
2022-09-01T20:03:14.429Z,3.50
2022-09-01T20:06:37.754Z,3.20
2022-09-01T20:09:50.281Z,3.13
2022-09-01T20:13:22.669Z,3.30
2022-09-01T20:16:52.159Z,2.90
2022-09-01T20:20:01.429Z,3.50
2022-09-01T20:23:28.062Z,3.22
2022-09-01T20:26:48.884Z,3.78
2022-09-01T20:30:00.440Z,3.25
2022-09-01T20:33:15.224Z,2.80
2022-09-01T20:36:33.343Z,2.55
2022-09-01T20:40:00.100Z,2.92
2022-09-01T20:43:30.765Z,3.05
2022-09-01T20:46:32.669Z,3.00
2022-09-01T20:49:37.854Z,3.08
2022-09-01T20:52:51.697Z,2.85
2022-09-01T20:56:07.387Z,3.13
2022-09-01T20:59:21.336Z,3.15
2022-09-01T21:02:35.509Z,3.17
2022-09-01T21:06:04.635Z,2.90
2022-09-01T21:09:09.696Z,2.90
2022-09-01T21:12:38.586Z,2.85
2022-09-01T21:15:53.631Z,3.08
2022-09-01T21:19:01.162Z,3.40
2022-09-01T21:22:11.919Z,3.40
2022-09-01T21:25:13.725Z,3.15
2022-09-01T21:28:20.010Z,3.20
2022-09-01T21:31:24.127Z,3.90
2022-09-01T21:34:26.990Z,3.42
2022-09-01T21:37:30.221Z,3.10
2022-09-01T21:40:33.598Z,3.03
2022-09-01T21:46:39.887Z,3.00
2022-09-01T21:49:42.169Z,2.80
2022-09-01T21:52:44.029Z,2.70
2022-09-01T21:55:45.817Z,2.60
2022-09-01T21:58:47.614Z,2.70
2022-09-01T22:01:52.544Z,2.80
2022-09-01T22:04:54.447Z,2.40
2022-09-01T22:07:58.398Z,2.88
2022-09-01T22:11:00.649Z,2.42
2022-09-01T22:14:02.888Z,2.60
2022-09-01T22:17:04.939Z,2.60
2022-09-01T22:20:09.334Z,2.60
2022-09-01T22:23:12.300Z,2.40
2022-09-01T22:26:23.562Z,2.88
2022-09-01T22:29:25.426Z,2.72
2022-09-01T22:32:32.838Z,2.60
2022-09-01T22:35:39.662Z,2.20
2022-09-01T22:38:41.947Z,2.60
2022-09-01T22:41:43.722Z,2.75
2022-09-01T22:44:45.463Z,2.45
2022-09-01T22:47:47.278Z,3.00
2022-09-01T22:50:50.349Z,2.40
2022-09-01T22:53:52.202Z,2.47
2022-09-01T22:56:54.403Z,2.50
2022-09-01T23:00:01.070Z,2.65
2022-09-01T23:03:04.185Z,2.07
2022-09-01T23:06:10.078Z,2.40
2022-09-01T23:09:13.592Z,2.10
2022-09-01T23:12:16.063Z,2.13
2022-09-01T23:15:17.922Z,2.70
2022-09-01T23:18:19.773Z,2.22
2022-09-01T23:21:26.530Z,2.60
2022-09-01T23:24:28.519Z,2.50
2022-09-01T23:27:32.059Z,2.35
2022-09-01T23:30:34.161Z,2.63
2022-09-01T23:33:36.924Z,2.35
2022-09-01T23:36:40.223Z,2.80
2022-09-01T23:39:42.426Z,2.50
2022-09-01T23:42:45.411Z,2.67
2022-09-01T23:45:51.161Z,2.50
2022-09-01T23:48:54.244Z,2.53
2022-09-01T23:51:56.154Z,2.38
2022-09-01T23:54:57.981Z,2.45
2022-09-01T23:57:59.691Z,2.25
